Time;durP1;ratioP1;P1;durP2;ratioP2;P2;SDS_P1;SDS_P2;PMS_P1;PMS_P2;Temp;Humidity;BMP_temperature;BMP_pressure;BME280_temperature;BME280_humidity;BME280_pressure;Samples;Min_cycle;Max_cycle;Signal;HPM_P1;HPM_P2
2021/10/16 00:02:10;;;;;;;36.25;22.42;;;;;;;3.89;67.78;99856.13;1768573;81;21043;-69
2021/10/16 00:04:36;;;;;;;36.17;22.05;;;;;;;3.93;67.66;99853.25;1768267;81;21051;-69
2021/10/16 00:07:03;;;;;;;34.23;21.30;;;;;;;3.95;67.53;99841.75;1782152;79;21007;-69
2021/10/16 00:09:29;;;;;;;37.00;23.02;;;;;;;3.97;67.46;99837.46;1805340;79;21012;-69
2021/10/16 00:11:56;;;;;;;35.33;21.52;;;;;;;3.97;67.41;99835.59;1805440;79;21014;-69
2021/10/16 00:14:23;;;;;;;38.58;23.00;;;;;;;3.93;67.53;99841.13;1805193;79;21487;-70
2021/10/16 00:16:51;;;;;;;35.95;22.65;;;;;;;3.89;67.67;99844.01;1802088;79;21471;-69
2021/10/16 00:19:18;;;;;;;35.23;21.95;;;;;;;3.82;67.62;99841.92;1804899;79;20980;-69
2021/10/16 00:21:46;;;;;;;38.50;23.32;;;;;;;3.78;67.67;99837.20;1804890;79;21386;-69
2021/10/16 00:24:12;;;;;;;34.80;21.82;;;;;;;3.74;67.81;99834.66;1805317;79;20991;-69
2021/10/16 00:26:38;;;;;;;34.60;22.25;;;;;;;3.74;67.78;99826.05;1777657;79;21036;-69
2021/10/16 00:29:05;;;;;;;34.92;22.17;;;;;;;3.75;67.64;99830.92;1768505;81;21062;-69
2021/10/16 00:31:31;;;;;;;39.35;22.10;;;;;;;3.74;67.76;99818.50;1768223;81;21115;-69
2021/10/16 00:33:58;;;;;;;36.73;22.80;;;;;;;3.72;67.75;99811.18;1768415;81;21027;-69
2021/10/16 00:36:24;;;;;;;35.28;21.48;;;;;;;3.68;67.79;99811.33;1785602;79;21510;-70
2021/10/16 00:38:51;;;;;;;37.98;22.07;;;;;;;3.63;68.05;99802.58;1804948;79;21076;-69
2021/10/16 00:41:17;;;;;;;39.25;22.17;;;;;;;3.59;68.25;99803.23;1805204;79;21075;-69
2021/10/16 00:43:44;;;;;;;36.42;20.77;;;;;;;3.58;68.55;99806.45;1807775;79;21035;-69
2021/10/16 00:46:11;;;;;;;35.45;22.42;;;;;;;3.59;68.67;99798.69;1807451;79;21617;-69
2021/10/16 00:48:37;;;;;;;40.00;23.22;;;;;;;3.61;68.79;99801.98;1808363;79;21047;-69
2021/10/16 00:51:04;;;;;;;36.85;22.80;;;;;;;3.61;68.93;99799.81;1808514;79;20992;-69
2021/10/16 00:53:30;;;;;;;34.80;21.60;;;;;;;3.61;69.08;99801.16;1808529;79;21588;-70
2021/10/16 00:55:57;;;;;;;32.70;21.17;;;;;;;3.60;69.33;99791.44;1794262;79;21056;-70
2021/10/16 00:58:23;;;;;;;;;;;;;;;3.56;69.53;99782.98;1789486;80;21521;-69
2021/10/16 01:00:49;;;;;;;35.03;21.87;;;;;;;3.55;69.70;99796.66;1786893;80;20100;-69
2021/10/16 01:03:18;;;;;;;38.33;22.98;;;;;;;3.45;70.06;99793.98;1783967;79;21024;-70
2021/10/16 01:05:46;;;;;;;37.93;23.20;;;;;;;3.46;70.07;99794.28;1756018;82;21640;-69
2021/10/16 01:08:13;;;;;;;35.58;22.20;;;;;;;3.50;69.98;99794.66;1756149;82;21082;-70
2021/10/16 01:10:39;;;;;;;34.45;23.18;;;;;;;3.54;69.99;99791.00;1756310;82;21561;-70
2021/10/16 01:13:06;;;;;;;35.23;21.42;;;;;;;3.59;69.98;99798.69;1728598;82;21903;-70
2021/10/16 01:15:32;;;;;;;;;;;;;;;3.61;70.04;99801.16;1804167;79;21043;-69
2021/10/16 01:17:59;;;;;;;33.37;20.10;;;;;;;3.60;70.19;99804.38;1808665;79;20382;-69
2021/10/16 01:20:26;;;;;;;;;;;;;;;3.53;70.50;99807.66;1810982;79;21118;-69
2021/10/16 01:22:53;;;;;;;33.25;20.17;;;;;;;3.53;70.65;99798.24;1802501;79;20116;-69
2021/10/16 01:25:22;;;;;;;34.83;22.20;;;;;;;3.48;70.96;99801.59;1786593;80;21068;-69
2021/10/16 01:27:48;;;;;;;36.80;22.35;;;;;;;3.54;71.01;99800.42;1786822;79;21079;-69
2021/10/16 01:30:17;;;;;;;;;;;;;;;3.65;70.94;99787.55;1789514;80;21550;-69
2021/10/16 01:32:44;;;;;;;34.45;21.87;;;;;;;3.74;70.98;99792.40;1787090;79;20136;-69
2021/10/16 01:35:11;;;;;;;32.70;21.15;;;;;;;3.79;71.05;99799.25;1786922;79;21026;-69
2021/10/16 01:37:44;;;;;;;30.72;20.40;;;;;;;3.87;71.14;99791.39;1783546;80;21530;-69
2021/10/16 01:40:12;;;;;;;34.53;21.62;;;;;;;3.92;71.26;99791.03;1758262;80;21068;-69
2021/10/16 01:42:45;;;;;;;32.83;21.75;;;;;;;3.95;71.39;99778.45;1757244;80;21003;-69
2021/10/16 01:45:15;;;;;;;35.10;23.10;;;;;;;4.01;71.44;99780.22;1787186;80;21068;-69
2021/10/16 01:47:53;;;;;;;35.85;22.25;;;;;;;4.10;71.41;99774.01;1758367;80;21058;-69
2021/10/16 01:50:22;;;;;;;33.65;21.70;;;;;;;4.20;71.24;99776.97;1788329;80;21011;-69
2021/10/16 01:52:48;;;;;;;30.43;22.10;;;;;;;4.26;71.06;99774.69;1800994;79;20971;-70
2021/10/16 01:55:15;;;;;;;35.95;22.40;;;;;;;4.30;71.00;99769.14;1808142;79;21106;-69
2021/10/16 01:57:41;;;;;;;34.20;22.60;;;;;;;4.34;70.98;99770.84;1779029;81;21058;-69
2021/10/16 02:00:10;;;;;;;34.30;22.52;;;;;;;4.35;70.96;99770.63;1778757;81;21593;-69
2021/10/16 02:02:36;;;;;;;33.10;21.20;;;;;;;4.40;70.93;99761.83;1788389;79;21003;-69
2021/10/16 02:05:16;;;;;;;30.23;20.25;;;;;;;4.49;70.79;99766.68;1786779;79;21066;-69
2021/10/16 02:07:46;;;;;;;34.23;21.37;;;;;;;4.59;70.63;99778.23;1778294;81;21468;-69
2021/10/16 02:10:12;;;;;;;;;;;;;;;4.64;70.55;99776.20;1781212;81;21074;-70
2021/10/16 02:12:40;;;;;;;36.05;22.93;;;;;;;4.66;70.61;99769.52;1778796;81;20419;-69
2021/10/16 02:15:08;;;;;;;34.60;23.45;;;;;;;4.62;70.76;99770.20;1798687;79;21012;-69
2021/10/16 02:17:36;;;;;;;37.33;23.42;;;;;;;4.62;70.77;99766.16;1815877;79;21054;-69
2021/10/16 02:20:06;;;;;;;35.60;22.80;;;;;;;4.69;70.68;99765.00;1815576;79;21058;-69
2021/10/16 02:22:33;;;;;;;35.98;23.10;;;;;;;4.78;70.53;99762.23;1815947;79;20991;-69
2021/10/16 02:25:00;;;;;;;38.15;22.98;;;;;;;4.86;70.35;99762.42;1803767;79;21098;-69
2021/10/16 02:27:26;;;;;;;;;;;;;;;4.91;70.22;99765.25;1753276;81;21035;-69
2021/10/16 02:29:54;;;;;;;32.55;21.87;;;;;;;4.93;70.21;99765.83;1778884;81;20136;-70
2021/10/16 02:32:20;;;;;;;31.80;21.55;;;;;;;4.88;70.35;99760.33;1778709;81;21490;-69
2021/10/16 02:34:47;;;;;;;32.95;22.05;;;;;;;4.89;70.31;99764.13;1807187;79;21039;-69
2021/10/16 02:37:15;;;;;;;32.70;20.97;;;;;;;4.92;70.16;99764.20;1815759;79;20991;-68
2021/10/16 02:39:42;;;;;;;;;;;;;;;5.00;70.01;99766.01;1818543;79;21022;-68
2021/10/16 02:42:09;;;;;;;34.20;21.87;;;;;;;5.08;69.83;99762.66;1816015;79;20121;-68
2021/10/16 02:44:36;;;;;;;31.62;22.42;;;;;;;5.09;69.83;99759.74;1785691;79;21010;-69
2021/10/16 02:47:03;;;;;;;31.87;20.52;;;;;;;5.16;69.75;99759.09;1771421;79;21455;-69
2021/10/16 02:49:30;;;;;;;31.27;21.33;;;;;;;5.14;69.72;99754.97;1777999;79;21084;-68
2021/10/16 02:51:58;;;;;;;31.73;22.00;;;;;;;5.12;69.76;99746.30;1778001;81;21071;-69
2021/10/16 02:54:24;;;;;;;36.80;22.93;;;;;;;5.11;69.79;99753.56;1768758;79;21007;-69
2021/10/16 02:57:55;;;;;;;31.75;21.70;;;;;;;5.14;69.87;99749.05;1801414;79;22711;-69
2021/10/16 03:00:21;;;;;;;;;;;;;;;5.12;69.80;99755.74;1760733;81;21570;-69
2021/10/16 03:02:48;;;;;;;35.83;21.70;;;;;;;5.15;69.75;99745.30;1752219;82;20205;-69
2021/10/16 03:05:15;;;;;;;32.23;21.70;;;;;;;5.14;69.83;99753.09;1753022;82;21055;-69
2021/10/16 03:07:42;;;;;;;33.02;22.48;;;;;;;5.14;69.82;99749.05;1752638;81;21066;-69
2021/10/16 03:10:10;;;;;;;32.40;21.75;;;;;;;5.11;69.86;99748.17;1752859;81;21028;-69
2021/10/16 03:12:38;;;;;;;32.85;23.52;;;;;;;5.10;69.97;99755.17;1734664;82;21557;-69
2021/10/16 03:15:05;;;;;;;32.88;22.60;;;;;;;5.08;70.04;99748.65;1723218;83;21110;-69
2021/10/16 03:17:33;;;;;;;34.98;22.17;;;;;;;5.10;70.04;99741.13;1723027;82;21042;-69
2021/10/16 03:19:59;;;;;;;33.73;22.85;;;;;;;5.16;69.94;99743.42;1723540;83;21544;-69
2021/10/16 03:22:26;;;;;;;33.05;22.58;;;;;;;5.20;69.90;99737.33;1733530;82;21006;-69
2021/10/16 03:24:53;;;;;;;31.65;21.73;;;;;;;5.27;69.91;99731.80;1753193;82;21067;-69
2021/10/16 03:27:19;;;;;;;31.45;21.48;;;;;;;5.32;69.89;99734.59;1753204;82;21656;-69
2021/10/16 03:29:46;;;;;;;35.05;22.95;;;;;;;5.32;69.93;99730.02;1753312;81;21031;-70
2021/10/16 03:32:12;;;;;;;30.52;21.90;;;;;;;5.31;69.92;99728.39;1729450;82;21061;-68
2021/10/16 03:34:39;;;;;;;33.48;22.82;;;;;;;5.29;69.99;99731.02;1723162;83;21065;-69
2021/10/16 03:37:06;;;;;;;32.30;20.65;;;;;;;5.31;70.02;99734.31;1723218;83;21082;-69
2021/10/16 03:39:33;;;;;;;31.07;20.85;;;;;;;5.32;69.95;99732.71;1723140;83;21043;-69
2021/10/16 03:42:00;;;;;;;32.42;23.42;;;;;;;5.33;69.94;99733.02;1739087;82;21014;-70
2021/10/16 03:44:26;;;;;;;33.08;22.73;;;;;;;5.34;69.96;99722.52;1753172;82;21078;-69
2021/10/16 03:46:53;;;;;;;32.25;21.80;;;;;;;5.36;69.99;99740.63;1753007;82;21062;-69
2021/10/16 03:49:20;;;;;;;;;;;;;;;5.36;70.10;99734.41;1755804;82;20991;-70
2021/10/16 03:51:48;;;;;;;32.65;22.35;;;;;;;5.37;70.15;99729.31;1723484;82;20126;-69
2021/10/16 03:54:15;;;;;;;32.65;21.62;;;;;;;5.28;70.37;99732.09;1723275;83;21007;-69
2021/10/16 03:56:41;;;;;;;;;;;;;;;5.30;70.43;99729.97;1725854;82;21078;-69
2021/10/16 03:59:08;;;;;;;32.55;23.07;;;;;;;5.34;70.35;99730.61;1724043;83;20430;-69
2021/10/16 04:01:35;;;;;;;35.10;22.90;;;;;;;5.35;70.42;99736.84;1745567;82;21082;-69
2021/10/16 04:04:01;;;;;;;33.53;22.65;;;;;;;5.39;70.45;99732.58;1753948;82;20987;-69
2021/10/16 04:06:27;;;;;;;33.28;22.00;;;;;;;5.44;70.40;99731.34;1753856;82;21086;-70
2021/10/16 04:08:55;;;;;;;35.40;24.85;;;;;;;5.46;70.39;99724.64;1748530;82;21352;-69
2021/10/16 04:11:24;;;;;;;31.40;22.55;;;;;;;5.47;70.45;99733.05;1723369;82;21573;-69
2021/10/16 04:13:51;;;;;;;34.80;24.23;;;;;;;5.49;70.47;99730.11;1723196;82;21026;-70
2021/10/16 04:16:17;;;;;;;29.98;21.12;;;;;;;5.52;70.40;99732.33;1723476;83;21549;-69
2021/10/16 04:18:45;;;;;;;29.98;20.80;;;;;;;5.60;70.28;99729.23;1723304;83;21023;-69
2021/10/16 04:21:11;;;;;;;30.02;21.20;;;;;;;5.68;70.13;99732.92;1751244;82;21137;-69
2021/10/16 04:23:37;;;;;;;31.02;21.12;;;;;;;5.71;70.05;99731.61;1705623;83;21002;-69
2021/10/16 04:26:04;;;;;;;37.60;24.95;;;;;;;5.70;70.09;99729.98;1723344;82;21054;-70
2021/10/16 04:28:31;;;;;;;;;;;;;;;5.69;70.12;99734.56;1725917;82;21600;-70
2021/10/16 04:31:02;;;;;;;35.33;22.82;;;;;;;5.69;70.16;99731.86;1723488;82;20113;-70
2021/10/16 04:33:29;;;;;;;33.10;23.22;;;;;;;5.62;70.23;99722.26;1723578;83;21625;-70
2021/10/16 04:35:55;;;;;;;34.40;23.22;;;;;;;5.63;70.15;99722.55;1723273;83;21082;-69
2021/10/16 04:38:22;;;;;;;33.48;21.75;;;;;;;5.64;70.01;99718.77;1726438;82;21569;-69
2021/10/16 04:40:49;;;;;;;33.33;22.40;;;;;;;5.67;69.94;99722.38;1753406;82;21063;-70
2021/10/16 04:43:15;;;;;;;32.10;22.77;;;;;;;5.69;69.89;99721.06;1753154;82;21292;-69
2021/10/16 04:45:46;;;;;;;33.35;22.42;;;;;;;5.76;69.85;99735.77;1753161;82;21558;-70
2021/10/16 04:48:12;;;;;;;33.33;23.00;;;;;;;5.78;69.87;99740.39;1753418;82;21494;-69
2021/10/16 04:50:40;;;;;;;34.20;22.77;;;;;;;5.78;69.93;99737.16;1726591;81;21121;-70
2021/10/16 04:53:07;;;;;;;35.78;24.57;;;;;;;5.80;70.02;99750.44;1723344;83;21093;-70
2021/10/16 04:55:35;;;;;;;36.50;24.85;;;;;;;5.80;70.09;99742.34;1723353;83;21039;-70
2021/10/16 04:58:01;;;;;;;33.23;23.27;;;;;;;5.83;70.10;99733.22;1712065;81;21007;-70
2021/10/16 05:00:30;;;;;;;34.73;23.25;;;;;;;5.91;70.01;99729.35;1759831;81;21034;-70
2021/10/16 05:02:57;;;;;;;33.85;22.07;;;;;;;5.99;69.94;99725.71;1761069;81;21053;-70
2021/10/16 05:05:26;;;;;;;36.65;23.47;;;;;;;6.06;69.92;99731.52;1761171;81;21038;-70
2021/10/16 05:07:52;;;;;;;35.17;23.73;;;;;;;6.06;69.96;99730.97;1730297;81;21562;-70
2021/10/16 05:10:19;;;;;;;34.55;22.82;;;;;;;6.06;70.01;99725.56;1731110;83;21030;-70
2021/10/16 05:12:47;;;;;;;35.60;23.85;;;;;;;6.09;70.09;99721.05;1730780;82;21042;-70
2021/10/16 05:15:14;;;;;;;34.67;22.50;;;;;;;6.14;70.08;99720.30;1730569;83;21652;-69
2021/10/16 05:17:42;;;;;;;33.67;21.23;;;;;;;6.20;69.94;99716.09;1747010;81;21327;-70
2021/10/16 05:20:11;;;;;;;29.40;22.05;;;;;;;6.28;69.93;99713.52;1759960;81;21363;-70
2021/10/16 05:22:40;;;;;;;31.52;22.02;;;;;;;6.33;69.88;99719.84;1747924;81;21031;-69
2021/10/16 05:25:07;;;;;;;33.50;23.25;;;;;;;6.36;69.87;99711.24;1731275;81;21023;-70
2021/10/16 05:27:35;;;;;;;31.85;23.52;;;;;;;6.40;69.92;99719.16;1732893;81;21050;-70
2021/10/16 05:30:03;;;;;;;34.40;23.18;;;;;;;6.42;69.84;99720.25;1730823;82;21097;-70
2021/10/16 05:32:32;;;;;;;33.05;23.42;;;;;;;6.50;69.76;99717.14;1731008;81;21034;-70
2021/10/16 05:34:59;;;;;;;30.68;20.30;;;;;;;6.60;69.58;99718.66;1730781;83;21722;-70
2021/10/16 05:37:25;;;;;;;32.63;21.40;;;;;;;6.71;69.46;99720.98;1733112;81;21038;-70
2021/10/16 05:39:52;;;;;;;33.30;21.93;;;;;;;6.75;69.35;99716.20;1730661;83;21071;-70
2021/10/16 05:42:18;;;;;;;31.70;23.18;;;;;;;6.76;69.33;99719.20;1750134;81;21034;-71
2021/10/16 05:44:48;;;;;;;28.67;21.85;;;;;;;6.78;69.27;99726.52;1760837;81;21019;-70
2021/10/16 05:47:15;;;;;;;30.60;21.23;;;;;;;6.80;69.28;99727.64;1761415;81;21513;-71
2021/10/16 05:49:42;;;;;;;32.93;22.77;;;;;;;6.87;69.19;99722.88;1755565;81;20967;-68
2021/10/16 05:52:10;;;;;;;30.27;21.45;;;;;;;6.91;69.03;99727.53;1752887;81;21059;-68
2021/10/16 05:54:36;;;;;;;30.82;22.02;;;;;;;6.99;68.96;99724.94;1761096;81;21026;-70
2021/10/16 05:57:03;;;;;;;31.68;22.05;;;;;;;7.01;68.88;99722.26;1758323;81;21019;-69
2021/10/16 05:59:30;;;;;;;32.00;23.30;;;;;;;7.05;68.91;99729.91;1753332;82;21004;-70
2021/10/16 06:01:56;;;;;;;34.38;24.20;;;;;;;7.07;68.96;99727.76;1751204;82;20987;-69
2021/10/16 06:04:23;;;;;;;40.65;27.42;;;;;;;7.08;69.03;99718.05;1753117;81;20976;-67
2021/10/16 06:06:50;;;;;;;51.85;34.40;;;;;;;7.17;68.99;99719.24;1753225;82;21043;-68
2021/10/16 06:09:16;;;;;;;;;;;;;;;7.31;68.88;99716.98;1754585;82;21015;-67
2021/10/16 06:11:43;;;;;;;37.95;25.97;;;;;;;7.42;68.68;99716.88;1736358;82;20409;-68
2021/10/16 06:14:12;;;;;;;32.10;22.65;;;;;;;7.46;68.55;99710.42;1695911;83;21043;-67
2021/10/16 06:16:38;;;;;;;33.35;21.87;;;;;;;7.48;68.50;99717.22;1743999;82;21031;-67
2021/10/16 06:19:05;;;;;;;30.40;22.48;;;;;;;7.51;68.47;99720.77;1752477;81;20956;-67
2021/10/16 06:21:33;;;;;;;30.72;22.37;;;;;;;7.57;68.56;99730.33;1723654;82;21090;-69
2021/10/16 06:24:00;;;;;;;30.75;21.85;;;;;;;7.71;68.50;99726.16;1752523;82;20988;-68
2021/10/16 06:26:31;;;;;;;33.38;22.65;;;;;;;7.95;68.40;99737.83;1745431;82;21086;-68
2021/10/16 06:28:58;;;;;;;31.77;22.40;;;;;;;8.17;67.98;99737.78;1725357;82;21455;-70
2021/10/16 06:31:24;;;;;;;32.42;22.87;;;;;;;8.32;67.62;99735.80;1730102;82;21070;-70
2021/10/16 06:33:50;;;;;;;;;;;;;;;8.40;67.40;99732.59;1724936;83;21038;-70
2021/10/16 06:36:17;;;;;;;38.02;24.63;;;;;;;8.42;67.17;99727.75;1722480;83;20113;-70
2021/10/16 06:38:45;;;;;;;33.18;23.07;;;;;;;8.37;67.27;99732.58;1727686;82;21640;-69
2021/10/16 06:41:12;;;;;;;30.37;22.30;;;;;;;8.42;67.40;99734.53;1752500;82;21065;-69
2021/10/16 06:43:55;;;;;;;34.53;23.18;;;;;;;8.50;67.24;99737.58;1688648;84;21067;-69
2021/10/16 06:46:27;;;;;;;31.80;22.05;;;;;;;8.62;67.13;99736.05;1732962;82;21039;-67
2021/10/16 06:49:12;;;;;;;36.40;23.42;;;;;;;8.72;67.14;99733.95;1746093;82;20991;-69
2021/10/16 06:51:42;;;;;;;29.82;22.22;;;;;;;8.81;67.02;99737.84;1722174;83;21126;-70
2021/10/16 06:54:10;;;;;;;28.20;21.57;;;;;;;8.88;66.81;99729.75;1724610;82;21039;-69
2021/10/16 06:56:36;;;;;;;31.12;21.77;;;;;;;8.98;66.98;99726.28;1722496;83;21027;-69
2021/10/16 06:59:03;;;;;;;25.50;19.52;;;;;;;9.14;66.77;99724.50;1740227;82;21007;-69
2021/10/16 07:01:30;;;;;;;27.75;19.95;;;;;;;9.31;66.42;99727.31;1748271;82;21070;-70
2021/10/16 07:03:58;;;;;;;26.27;20.20;;;;;;;9.43;66.04;99725.72;1748353;82;21035;-68
2021/10/16 07:06:25;;;;;;;;;;;;;;;9.52;65.83;99716.53;1751582;82;21059;-69
2021/10/16 07:08:51;;;;;;;31.93;20.88;;;;;;;9.56;65.13;99714.92;1707356;83;20117;-70
2021/10/16 07:11:18;;;;;;;30.08;21.27;;;;;;;9.48;64.79;99723.86;1721209;82;21062;-70
2021/10/16 07:13:45;;;;;;;27.73;20.95;;;;;;;9.48;64.56;99719.78;1718874;83;21063;-70
2021/10/16 07:16:12;;;;;;;26.52;20.92;;;;;;;9.51;64.44;99721.15;1721184;82;21047;-69
2021/10/16 07:18:38;;;;;;;;;;;;;;;9.57;64.25;99708.39;1736242;82;21066;-70
2021/10/16 07:21:05;;;;;;;29.75;20.43;;;;;;;9.66;64.12;99712.25;1749548;82;20468;-69
2021/10/16 07:23:32;;;;;;;31.62;21.48;;;;;;;9.69;64.05;99713.06;1749461;82;21075;-68
2021/10/16 07:25:59;;;;;;;29.40;21.85;;;;;;;9.75;64.04;99725.05;1749580;82;21106;-69
2021/10/16 07:28:25;;;;;;;32.40;23.55;;;;;;;9.83;64.07;99729.16;1748710;82;21604;-70
2021/10/16 07:30:52;;;;;;;33.90;22.93;;;;;;;9.92;64.04;99721.56;1745599;82;21075;-71
2021/10/16 07:33:18;;;;;;;29.98;22.25;;;;;;;10.03;63.96;99728.39;1729120;82;21042;-71
2021/10/16 07:35:45;;;;;;;37.25;25.85;;;;;;;10.19;64.11;99731.46;1736509;82;21026;-74
2021/10/16 07:38:12;;;;;;;34.60;26.23;;;;;;;10.51;63.99;99729.87;1737431;82;21047;-74
2021/10/16 07:40:38;;;;;;;26.85;21.23;;;;;;;10.85;63.40;99733.13;1745048;82;21063;-73
2021/10/16 07:43:05;;;;;;;28.38;20.68;;;;;;;11.23;63.00;99733.64;1749202;82;21031;-73
2021/10/16 07:45:32;;;;;;;24.55;19.90;;;;;;;11.65;62.15;99729.97;1749212;82;21051;-74
2021/10/16 07:47:58;;;;;;;25.55;19.85;;;;;;;12.16;61.35;99723.72;1720086;83;21057;-73
2021/10/16 07:50:25;;;;;;;;;;;;;;;12.64;59.87;99729.41;1722150;83;21062;-73
2021/10/16 07:52:51;;;;;;;26.23;18.62;;;;;;;13.11;59.19;99725.44;1720093;83;20108;-72
2021/10/16 07:55:17;;;;;;;;;;;;;;;13.50;57.69;99725.88;1724760;82;21046;-73
2021/10/16 07:57:43;;;;;;;25.80;19.40;;;;;;;13.87;56.60;99725.40;1721299;83;20124;-73
2021/10/16 08:00:10;;;;;;;;;;;;;;;14.06;55.79;99709.00;1726085;83;21054;-73
2021/10/16 08:02:39;;;;;;;20.15;17.17;;;;;;;14.41;55.02;99706.33;1723057;83;20113;-72
2021/10/16 08:05:06;;;;;;;;;;;;;;;14.64;53.88;99704.58;1728984;82;21635;-73
2021/10/16 08:07:33;;;;;;;22.32;18.55;;;;;;;14.85;53.32;99712.71;1753254;82;20102;-72
2021/10/16 08:10:00;;;;;;;21.20;18.45;;;;;;;14.95;52.44;99707.05;1753142;82;21047;-71
2021/10/16 08:12:26;;;;;;;22.35;18.87;;;;;;;15.20;52.27;99700.29;1751418;82;21534;-73
2021/10/16 08:14:54;;;;;;;22.35;19.12;;;;;;;15.53;51.17;99702.43;1753371;81;21106;-72
2021/10/16 08:17:21;;;;;;;;;;;;;;;15.74;49.85;99697.59;1756154;81;21177;-72
2021/10/16 08:19:47;;;;;;;23.57;19.82;;;;;;;15.91;49.86;99689.53;1753484;82;20142;-72
2021/10/16 08:22:15;;;;;;;20.90;18.05;;;;;;;16.00;49.13;99695.13;1751376;81;20995;-72
2021/10/16 08:24:43;;;;;;;22.62;19.90;;;;;;;16.12;48.52;99683.61;1748877;82;21062;-71
2021/10/16 08:27:10;;;;;;;22.75;19.52;;;;;;;16.25;48.54;99689.62;1753421;82;21023;-74
2021/10/16 08:29:36;;;;;;;20.72;17.60;;;;;;;16.34;47.62;99693.23;1753382;82;20999;-73
2021/10/16 08:32:04;;;;;;;22.58;18.05;;;;;;;16.39;48.06;99696.69;1753127;82;21499;-73
2021/10/16 08:34:32;;;;;;;21.97;17.32;;;;;;;16.55;47.65;99692.19;1753182;81;21007;-73
2021/10/16 08:36:59;;;;;;;23.20;17.62;;;;;;;16.75;47.60;99693.92;1749106;82;21050;-72
2021/10/16 08:39:27;;;;;;;19.98;16.62;;;;;;;17.09;46.56;99691.93;1753095;82;21014;-74
2021/10/16 08:41:53;;;;;;;20.97;17.98;;;;;;;17.30;45.99;99690.25;1753475;81;20972;-74
2021/10/16 08:44:20;;;;;;;20.88;16.37;;;;;;;17.31;45.00;99701.52;1751086;81;21019;-74
2021/10/16 08:46:46;;;;;;;19.95;15.93;;;;;;;17.31;45.17;99703.45;1753169;81;21063;-74
2021/10/16 08:49:14;;;;;;;17.73;15.83;;;;;;;17.45;45.35;99708.84;1753126;82;21498;-73
2021/10/16 08:51:43;;;;;;;18.73;16.07;;;;;;;17.70;44.82;99717.23;1753049;81;21574;-71
2021/10/16 08:54:10;;;;;;;22.90;16.42;;;;;;;17.85;43.97;99714.61;1750390;82;20991;-72
2021/10/16 08:56:36;;;;;;;34.30;27.13;;;;;;;17.97;43.56;99712.03;1753411;82;21074;-72
2021/10/16 08:59:03;;;;;;;22.07;19.20;;;;;;;18.16;43.25;99718.07;1753058;82;21574;-74
2021/10/16 09:01:29;;;;;;;20.37;16.67;;;;;;;18.37;43.38;99709.42;1730009;82;21050;-73
2021/10/16 09:03:57;;;;;;;17.87;15.85;;;;;;;18.69;42.43;99708.70;1723287;83;21066;-73
2021/10/16 09:06:27;;;;;;;18.55;14.85;;;;;;;18.96;41.84;99696.48;1723133;83;21173;-72
2021/10/16 09:09:00;;;;;;;18.17;15.45;;;;;;;19.15;41.40;99688.09;1723214;83;21129;-72
2021/10/16 09:11:38;;;;;;;18.82;14.98;;;;;;;19.36;40.87;99693.70;1725943;82;21058;-72
2021/10/16 09:14:18;;;;;;;19.10;14.73;;;;;;;19.66;40.82;99702.86;1725452;82;21493;-70
2021/10/16 09:16:58;;;;;;;18.35;15.65;;;;;;;19.95;39.66;99702.02;1723230;83;21568;-70
2021/10/16 09:19:28;;;;;;;18.12;14.80;;;;;;;20.11;38.48;99694.78;1723302;82;21066;-73
2021/10/16 09:22:07;;;;;;;18.40;15.13;;;;;;;19.99;38.64;99690.55;1723241;82;21019;-72
2021/10/16 09:24:44;;;;;;;18.27;14.25;;;;;;;20.01;38.21;99686.89;1724453;82;21586;-71
2021/10/16 09:27:20;;;;;;;17.32;14.28;;;;;;;20.01;38.21;99683.56;1723883;82;21011;-72
2021/10/16 09:29:53;;;;;;;;;;;;;;;20.00;38.16;99686.08;1703579;83;21019;-72
2021/10/16 09:32:24;;;;;;;18.65;16.52;;;;;;;20.04;37.97;99682.89;1734719;82;20137;-72
2021/10/16 09:35:04;;;;;;;19.35;16.52;;;;;;;20.01;38.52;99696.00;1753328;81;21050;-73
2021/10/16 09:37:30;;;;;;;47.13;38.55;;;;;;;20.23;38.23;99697.03;1753036;82;21043;-72
2021/10/16 09:39:59;;;;;;;37.90;30.05;;;;;;;20.20;37.18;99699.66;1724165;81;21130;-73
2021/10/16 09:42:40;;;;;;;21.80;18.82;;;;;;;19.75;38.03;99695.33;1723115;83;21026;-73
2021/10/16 09:45:10;;;;;;;21.35;18.37;;;;;;;19.45;38.79;99700.61;1723478;83;21075;-74
2021/10/16 09:47:37;;;;;;;16.10;14.35;;;;;;;19.17;39.29;99695.45;1738683;82;21505;-72
2021/10/16 09:50:06;;;;;;;16.02;13.20;;;;;;;18.85;39.33;99693.26;1753219;81;21073;-74
2021/10/16 09:52:38;;;;;;;15.23;13.40;;;;;;;18.45;39.89;99692.64;1753265;81;20994;-72
2021/10/16 09:55:12;;;;;;;30.10;24.20;;;;;;;18.09;40.56;99694.88;1753287;81;21050;-69
2021/10/16 09:57:43;;;;;;;22.05;16.95;;;;;;;17.77;40.89;99693.36;1741182;81;21066;-70
2021/10/16 10:00:11;;;;;;;18.48;14.98;;;;;;;17.41;41.90;99680.59;1709721;84;21032;-70
2021/10/16 10:02:41;;;;;;;35.40;29.48;;;;;;;17.17;42.64;99681.55;1709521;84;21024;-70
2021/10/16 10:05:08;;;;;;;36.90;29.55;;;;;;;16.97;42.99;99686.19;1711783;82;21102;-71
2021/10/16 10:07:36;;;;;;;19.10;16.00;;;;;;;16.75;43.32;99685.68;1709597;84;21043;-71
2021/10/16 10:10:04;;;;;;;20.00;15.25;;;;;;;16.55;43.87;99675.70;1709738;83;21027;-72
2021/10/16 10:12:32;;;;;;;18.32;13.72;;;;;;;16.34;44.42;99683.06;1709877;84;21530;-72
2021/10/16 10:15:01;;;;;;;16.60;13.28;;;;;;;16.18;45.29;99676.88;1725478;82;21617;-73
2021/10/16 10:17:32;;;;;;;22.40;17.82;;;;;;;16.14;45.40;99680.80;1739067;82;21096;-73
2021/10/16 10:20:07;;;;;;;35.80;28.70;;;;;;;16.10;45.41;99683.91;1739062;82;21573;-72
2021/10/16 10:22:35;;;;;;;27.32;21.15;;;;;;;16.00;44.94;99681.95;1739081;82;21491;-73
2021/10/16 10:25:15;;;;;;;19.82;14.80;;;;;;;15.82;45.56;99676.86;1739265;81;21019;-71
2021/10/16 10:27:44;;;;;;;18.55;14.35;;;;;;;15.78;46.37;99674.47;1736982;82;20997;-71
2021/10/16 10:30:40;;;;;;;20.17;14.85;;;;;;;15.80;46.41;99670.28;1739008;82;21063;-70
2021/10/16 10:33:19;;;;;;;17.10;13.98;;;;;;;15.83;46.09;99667.51;1736741;82;21043;-69
2021/10/16 10:36:21;;;;;;;17.80;13.00;;;;;;;15.80;45.66;99665.38;1738943;82;21060;-69
2021/10/16 10:38:48;;;;;;;15.55;12.63;;;;;;;15.81;45.33;99668.36;1739004;82;21479;-70
2021/10/16 10:41:28;;;;;;;15.45;11.45;;;;;;;15.61;45.35;99653.16;1737197;82;21068;-71
2021/10/16 10:43:54;;;;;;;16.02;11.83;;;;;;;15.61;45.38;99664.69;1739237;82;21091;-70
2021/10/16 10:46:28;;;;;;;18.85;12.73;;;;;;;15.63;45.11;99654.20;1739221;82;21043;-73
2021/10/16 10:49:06;;;;;;;24.43;16.02;;;;;;;15.66;44.86;99656.36;1738888;82;21519;-72
2021/10/16 10:51:35;;;;;;;20.65;14.50;;;;;;;15.67;45.12;99651.10;1735572;82;21091;-70
2021/10/16 10:54:16;;;;;;;25.12;17.17;;;;;;;15.67;44.56;99644.24;1739126;82;21086;-71
2021/10/16 10:56:45;;;;;;;32.30;22.25;;;;;;;15.64;45.10;99644.86;1728345;82;21043;-73
2021/10/16 10:59:14;;;;;;;23.05;16.23;;;;;;;15.63;44.62;99644.59;1743896;81;21031;-72
2021/10/16 11:01:57;;;;;;;18.65;14.55;;;;;;;15.60;44.74;99641.10;1747213;82;21071;-69
2021/10/16 11:04:52;;;;;;;18.05;14.10;;;;;;;15.59;44.82;99636.17;1747413;82;21617;-72
2021/10/16 11:07:47;;;;;;;108.12;62.50;;;;;;;15.57;45.35;99632.12;1736845;82;21035;-71
2021/10/16 11:10:14;;;;;;;36.17;23.90;;;;;;;15.65;45.40;99628.10;1744447;82;21494;-72
2021/10/16 11:12:44;;;;;;;49.58;31.37;;;;;;;15.75;45.13;99627.06;1747597;82;21007;-71
2021/10/16 11:15:14;;;;;;;27.73;17.02;;;;;;;15.79;44.73;99629.44;1718580;82;21543;-73
2021/10/16 11:17:44;;;;;;;24.57;17.60;;;;;;;15.83;44.60;99626.34;1747734;82;21519;-71
2021/10/16 11:20:19;;;;;;;21.48;16.12;;;;;;;15.80;44.20;99619.51;1747334;82;21035;-70
2021/10/16 11:22:55;;;;;;;23.80;16.97;;;;;;;15.79;44.33;99625.33;1747879;81;21016;-72
2021/10/16 11:25:30;;;;;;;16.48;12.40;;;;;;;15.76;44.32;99621.83;1747553;82;21059;-70
2021/10/16 11:28:12;;;;;;;17.55;12.28;;;;;;;15.80;44.80;99621.47;1719801;82;21007;-72
2021/10/16 11:30:42;;;;;;;16.37;11.85;;;;;;;15.88;44.39;99620.16;1717848;83;21122;-72
2021/10/16 11:33:14;;;;;;;15.08;11.10;;;;;;;15.91;44.24;99619.53;1717914;83;21058;-72
2021/10/16 11:35:43;;;;;;;16.82;11.43;;;;;;;15.96;44.64;99604.07;1732899;82;21008;-72
2021/10/16 11:38:11;;;;;;;26.35;19.07;;;;;;;16.02;44.63;99612.43;1747615;82;21043;-72